Time,TemperatureF,DewpointF,PressureIn,WindDirection,WindDirectionDegrees,WindSpeedMPH,WindSpeedGustMPH,Humidity,HourlyPrecipIn,Conditions,Clouds,dailyrainin,SoftwareType,DateUTC
2013-07-29 00:01:00,59.0,55.0,30.24,North,0,0.0,4.0,86,0.00,,,0.13,,2013-07-29 07:01:00,
2013-07-29 00:11:00,59.0,55.0,30.24,North,0,0.0,4.0,86,0.00,,,0.13,,2013-07-29 07:11:00,
2013-07-29 00:22:00,59.0,54.0,30.23,North,0,0.0,2.0,84,0.00,,,0.12,,2013-07-29 07:22:00,
2013-07-29 00:43:00,59.0,54.0,30.23,North,0,0.0,2.0,83,0.00,,,0.12,,2013-07-29 07:43:00,
2013-07-29 00:53:00,59.0,54.0,30.23,North,0,0.0,2.0,83,0.00,,,0.12,,2013-07-29 07:53:00,
2013-07-29 01:02:00,59.0,55.0,30.24,East,100,4.0,7.0,86,0.00,,,0.12,,2013-07-29 08:02:00,
2013-07-29 01:12:00,59.0,55.0,30.24,East,100,4.0,7.0,86,0.00,,,0.12,,2013-07-29 08:12:00,
2013-07-29 01:22:00,60.0,54.0,30.24,SSE,153,2.0,6.0,82,0.00,,,0.12,,2013-07-29 08:22:00,
2013-07-29 01:33:00,60.0,55.0,30.24,North,0,0.0,5.0,83,0.00,,,0.12,,2013-07-29 08:33:00,
2013-07-29 01:52:00,60.0,55.0,30.23,NNE,33,4.0,6.0,83,0.00,,,0.11,,2013-07-29 08:52:00,
2013-07-29 02:02:00,60.0,55.0,30.23,NNE,33,4.0,6.0,83,0.00,,,0.11,,2013-07-29 09:02:00,
2013-07-29 02:12:00,60.0,54.0,30.25,SW,218,3.0,7.0,82,0.00,,,0.11,,2013-07-29 09:12:00,
2013-07-29 02:22:00,61.0,54.0,30.25,SW,222,4.0,9.0,79,0.00,,,0.11,,2013-07-29 09:22:00,
2013-07-29 02:33:00,60.0,54.0,30.24,North,0,0.0,7.0,81,0.00,,,0.11,,2013-07-29 09:33:00,
2013-07-29 02:43:00,60.0,55.0,30.24,West,278,3.0,5.0,84,0.00,,,0.11,,2013-07-29 09:43:00,
2013-07-29 02:53:00,60.0,54.0,30.24,NNW,342,2.0,5.0,80,0.00,,,0.10,,2013-07-29 09:53:00,
2013-07-29 03:01:00,60.0,54.0,30.24,NNW,342,2.0,5.0,80,0.00,,,0.10,,2013-07-29 10:01:00,
2013-07-29 03:12:00,60.0,54.0,30.23,North,0,0.0,2.0,80,0.00,,,0.10,,2013-07-29 10:12:00,
2013-07-29 03:22:00,60.0,55.0,30.23,North,0,0.0,2.0,83,0.00,,,0.10,,2013-07-29 10:22:00,
2013-07-29 03:44:00,58.0,54.0,30.23,North,0,0.0,1.0,88,0.01,,,0.11,,2013-07-29 10:44:00,
2013-07-29 03:52:00,58.0,54.0,30.23,North,0,0.0,2.0,86,0.01,,,0.11,,2013-07-29 10:52:00,
2013-07-29 04:02:00,57.0,53.0,30.24,North,0,0.0,2.0,86,0.01,,,0.11,,2013-07-29 11:02:00,
2013-07-29 04:11:00,56.0,52.0,30.24,North,0,0.0,2.0,87,0.01,,,0.11,,2013-07-29 11:11:00,
2013-07-29 04:22:00,56.0,52.0,30.24,North,0,0.0,2.0,87,0.01,,,0.11,,2013-07-29 11:22:00,
2013-07-29 04:44:00,55.0,52.0,30.25,North,0,0.0,1.0,90,0.00,,,0.10,,2013-07-29 11:44:00,
2013-07-29 04:53:00,55.0,52.0,30.25,North,0,0.0,1.0,90,0.00,,,0.10,,2013-07-29 11:53:00,
2013-07-29 05:12:00,55.0,52.0,30.26,North,0,0.0,2.0,90,0.00,,,0.10,,2013-07-29 12:12:00,
2013-07-29 05:33:00,54.0,51.0,30.27,North,0,0.0,3.0,91,0.00,,,0.10,,2013-07-29 12:33:00,
2013-07-29 05:44:00,55.0,52.0,30.27,North,0,0.0,2.0,91,0.00,,,0.10,,2013-07-29 12:44:00,
2013-07-29 05:53:00,55.0,52.0,30.27,North,0,0.0,2.0,91,0.00,,,0.10,,2013-07-29 12:53:00,
2013-07-29 06:12:00,55.0,52.0,30.29,North,0,0.0,3.0,89,0.00,,,0.10,,2013-07-29 13:12:00,
2013-07-29 06:22:00,55.0,52.0,30.29,North,0,0.0,3.0,89,0.00,,,0.10,,2013-07-29 13:22:00,
2013-07-29 06:34:00,55.0,52.0,30.29,North,0,0.0,2.0,89,0.00,,,0.09,,2013-07-29 13:34:00,
2013-07-29 06:53:00,56.0,53.0,30.29,North,0,0.0,2.0,89,0.00,,,0.09,,2013-07-29 13:53:00,
2013-07-29 07:03:00,57.0,54.0,30.29,North,0,0.0,3.0,89,0.00,,,0.09,,2013-07-29 14:03:00,
2013-07-29 07:11:00,57.0,54.0,30.29,North,0,0.0,3.0,89,0.00,,,0.09,,2013-07-29 14:11:00,
2013-07-29 07:33:00,62.0,55.0,30.30,SW,236,2.0,6.0,78,0.00,,,0.09,,2013-07-29 14:33:00,
2013-07-29 07:47:00,63.0,55.0,30.30,WSW,243,3.0,7.0,74,0.00,,,0.09,,2013-07-29 14:47:00,
2013-07-29 07:55:00,64.0,54.0,30.31,SW,224,2.0,7.0,71,0.00,,,0.09,,2013-07-29 14:55:00,
2013-07-29 08:02:00,65.0,54.0,30.31,WSW,257,2.0,8.0,68,0.00,,,0.08,,2013-07-29 15:02:00,
2013-07-29 08:11:00,65.0,54.0,30.31,WSW,257,2.0,8.0,68,0.00,,,0.08,,2013-07-29 15:11:00,
2013-07-29 08:22:00,66.0,54.0,30.31,SSW,210,3.0,9.0,65,0.00,,,0.08,,2013-07-29 15:22:00,
2013-07-29 08:33:00,67.0,54.0,30.32,WSW,240,3.0,9.0,64,0.00,,,0.08,,2013-07-29 15:33:00,
2013-07-29 08:44:00,67.0,54.0,30.32,WSW,240,3.0,9.0,64,0.00,,,0.08,,2013-07-29 15:44:00,
2013-07-29 08:53:00,67.0,54.0,30.32,WSW,240,3.0,9.0,64,0.00,,,0.08,,2013-07-29 15:53:00,
2013-07-29 09:23:00,69.0,56.0,30.32,SW,217,7.0,12.0,63,0.00,,,0.08,,2013-07-29 16:23:00,
2013-07-29 09:54:00,69.0,55.0,30.33,SSW,211,8.0,15.0,60,0.01,,,0.08,,2013-07-29 16:54:00,
2013-07-29 10:43:00,71.0,55.0,30.33,SSW,211,8.0,13.0,58,0.01,,,0.08,,2013-07-29 17:43:00,
2013-07-29 10:53:00,71.0,55.0,30.33,SSW,211,8.0,13.0,58,0.01,,,0.08,,2013-07-29 17:53:00,
2013-07-29 11:11:00,73.0,54.0,30.33,SW,228,6.0,15.0,51,0.00,,,0.07,,2013-07-29 18:11:00,
2013-07-29 11:32:00,74.0,52.0,30.33,SW,220,6.0,15.0,47,0.00,,,0.07,,2013-07-29 18:32:00,
2013-07-29 11:57:00,74.0,52.0,30.33,WSW,247,7.0,17.0,47,0.00,,,0.07,,2013-07-29 18:57:00,
2013-07-29 12:34:00,75.0,52.0,30.33,WSW,238,6.0,13.0,44,0.00,,,0.06,,2013-07-29 19:34:00,
2013-07-29 12:44:00,75.0,52.0,30.32,WSW,255,5.0,15.0,44,0.00,,,0.06,,2013-07-29 19:44:00,
2013-07-29 12:53:00,75.0,52.0,30.32,WSW,255,5.0,15.0,44,0.00,,,0.06,,2013-07-29 19:53:00,
2013-07-29 13:11:00,76.0,49.0,30.33,West,259,10.0,16.0,38,0.01,,,0.07,,2013-07-29 20:11:00,
2013-07-29 13:33:00,76.0,51.0,30.33,West,275,9.0,13.0,41,0.01,,,0.06,,2013-07-29 20:33:00,
2013-07-29 13:44:00,76.0,50.0,30.33,SSW,211,5.0,13.0,40,0.01,,,0.06,,2013-07-29 20:44:00,
2013-07-29 13:54:00,76.0,52.0,30.33,West,277,4.0,15.0,43,0.01,,,0.06,,2013-07-29 20:54:00,
2013-07-29 14:11:00,76.0,50.0,30.32,West,265,10.0,15.0,40,0.01,,,0.06,,2013-07-29 21:11:00,
2013-07-29 14:22:00,77.0,51.0,30.32,SW,232,9.0,15.0,41,0.00,,,0.06,,2013-07-29 21:22:00,
2013-07-29 14:43:00,77.0,48.0,30.32,West,262,8.0,18.0,36,0.00,,,0.06,,2013-07-29 21:43:00,
2013-07-29 15:02:00,77.0,49.0,30.32,WSW,239,6.0,17.0,37,0.00,,,0.06,,2013-07-29 22:02:00,
2013-07-29 15:11:00,77.0,49.0,30.32,WSW,239,6.0,17.0,37,0.00,,,0.06,,2013-07-29 22:11:00,
2013-07-29 15:22:00,77.0,49.0,30.32,WSW,239,6.0,17.0,37,0.00,,,0.06,,2013-07-29 22:22:00,
2013-07-29 15:43:00,77.0,52.0,30.31,SW,236,6.0,15.0,42,0.00,,,0.06,,2013-07-29 22:43:00,
2013-07-29 15:56:00,77.0,52.0,30.31,WSW,240,5.0,15.0,42,0.00,,,0.06,,2013-07-29 22:56:00,
2013-07-29 16:04:00,77.0,52.0,30.31,WSW,240,5.0,15.0,42,0.00,,,0.06,,2013-07-29 23:04:00,
2013-07-29 16:12:00,77.0,53.0,30.31,WSW,257,8.0,14.0,43,0.00,,,0.05,,2013-07-29 23:12:00,
2013-07-29 16:22:00,78.0,51.0,30.31,WSW,245,8.0,19.0,39,0.00,,,0.05,,2013-07-29 23:22:00,
2013-07-29 16:33:00,78.0,51.0,30.31,WSW,245,8.0,19.0,39,0.00,,,0.05,,2013-07-29 23:33:00,
2013-07-29 16:43:00,78.0,50.0,30.30,WSW,243,9.0,23.0,37,0.00,,,0.05,,2013-07-29 23:43:00,
2013-07-29 16:53:00,78.0,50.0,30.30,SW,224,6.0,17.0,37,0.00,,,0.05,,2013-07-29 23:53:00,
2013-07-29 17:12:00,78.0,50.0,30.30,WSW,255,6.0,17.0,38,0.00,,,0.05,,2013-07-30 00:12:00,
2013-07-29 17:32:00,78.0,51.0,30.30,WSW,252,6.0,14.0,39,0.00,,,0.05,,2013-07-30 00:32:00,
2013-07-29 17:43:00,77.0,50.0,30.30,WSW,246,9.0,18.0,39,0.00,,,0.05,,2013-07-30 00:43:00,
2013-07-29 17:55:00,77.0,50.0,30.30,WSW,246,9.0,18.0,39,0.00,,,0.05,,2013-07-30 00:55:00,
2013-07-29 18:02:00,77.0,50.0,30.30,WSW,246,9.0,18.0,39,0.00,,,0.05,,2013-07-30 01:02:00,
2013-07-29 18:23:00,76.0,50.0,30.29,WSW,239,6.0,17.0,40,0.00,,,0.05,,2013-07-30 01:23:00,
2013-07-29 18:52:00,76.0,51.0,30.29,SW,235,9.0,16.0,42,0.01,,,0.06,,2013-07-30 01:52:00,
2013-07-29 19:02:00,75.0,50.0,30.29,SSW,207,8.0,15.0,42,0.01,,,0.05,,2013-07-30 02:02:00,
2013-07-29 19:13:00,74.0,50.0,30.30,SSW,209,3.0,9.0,43,0.01,,,0.05,,2013-07-30 02:13:00,
2013-07-29 19:22:00,74.0,50.0,30.30,SSW,209,3.0,9.0,43,0.01,,,0.05,,2013-07-30 02:22:00,
2013-07-29 19:33:00,74.0,50.0,30.30,SSW,209,3.0,9.0,43,0.01,,,0.05,,2013-07-30 02:33:00,
2013-07-29 20:04:00,71.0,51.0,30.33,ESE,116,2.0,3.0,49,0.00,,,0.05,,2013-07-30 03:04:00,
2013-07-29 20:12:00,69.0,50.0,30.34,North,0,0.0,1.0,51,0.00,,,0.05,,2013-07-30 03:12:00,
2013-07-29 20:33:00,68.0,51.0,30.34,North,0,0.0,1.0,54,0.00,,,0.05,,2013-07-30 03:33:00,
2013-07-29 20:43:00,66.0,51.0,30.34,North,0,0.0,1.0,59,0.00,,,0.05,,2013-07-30 03:43:00,
2013-07-29 20:53:00,66.0,51.0,30.34,North,0,0.0,1.0,59,0.00,,,0.05,,2013-07-30 03:53:00,
2013-07-29 21:12:00,65.0,50.0,30.35,North,0,0.0,3.0,59,0.00,,,0.05,,2013-07-30 04:12:00,
2013-07-29 21:32:00,65.0,50.0,30.37,South,183,1.0,4.0,58,0.00,,,0.05,,2013-07-30 04:32:00,
2013-07-29 21:43:00,64.0,50.0,30.37,South,183,1.0,3.0,60,0.00,,,0.05,,2013-07-30 04:43:00,
2013-07-29 21:53:00,64.0,50.0,30.37,North,0,0.0,3.0,61,0.00,,,0.05,,2013-07-30 04:53:00,
2013-07-29 22:02:00,64.0,50.0,30.37,North,0,0.0,3.0,61,0.00,,,0.05,,2013-07-30 05:02:00,
2013-07-29 22:32:00,62.0,49.0,30.38,SW,232,1.0,4.0,63,0.00,,,0.04,,2013-07-30 05:32:00,
2013-07-29 22:45:00,62.0,51.0,30.39,SW,233,1.0,5.0,66,0.00,,,0.04,,2013-07-30 05:45:00,
2013-07-29 22:52:00,62.0,51.0,30.39,SW,233,1.0,5.0,66,0.00,,,0.04,,2013-07-30 05:52:00,
2013-07-29 23:32:00,62.0,49.0,30.39,WSW,244,1.0,5.0,62,0.00,,,0.04,,2013-07-30 06:32:00,
2013-07-29 23:43:00,62.0,49.0,30.39,SW,224,1.0,4.0,62,0.00,,,0.04,,2013-07-30 06:43:00,
2013-07-29 23:52:00,62.0,49.0,30.39,SW,224,1.0,4.0,62,0.00,,,0.04,,2013-07-30 06:52:00,